sensor_id;sensor_type;location;lat;lon;timestamp;P1;durP1;ratioP1;P2;durP2;ratioP2
5285;SDS011;2665;53.112;7.358;2022-12-07T00:01:30;5.73;;;4.23;;
5285;SDS011;2665;53.112;7.358;2022-12-07T00:03:57;14.80;;;4.83;;
5285;SDS011;2665;53.112;7.358;2022-12-07T00:06:29;7.40;;;4.63;;
5285;SDS011;2665;53.112;7.358;2022-12-07T00:08:55;12.43;;;5.70;;
5285;SDS011;2665;53.112;7.358;2022-12-07T00:11:22;8.50;;;5.20;;
5285;SDS011;2665;53.112;7.358;2022-12-07T00:13:59;16.03;;;4.60;;
5285;SDS011;2665;53.112;7.358;2022-12-07T00:16:27;5.90;;;3.90;;
5285;SDS011;2665;53.112;7.358;2022-12-07T00:18:53;11.70;;;3.53;;
5285;SDS011;2665;53.112;7.358;2022-12-07T00:21:37;5.03;;;3.70;;
5285;SDS011;2665;53.112;7.358;2022-12-07T00:24:04;5.90;;;3.60;;
5285;SDS011;2665;53.112;7.358;2022-12-07T00:26:31;9.07;;;3.70;;
5285;SDS011;2665;53.112;7.358;2022-12-07T00:28:58;7.90;;;4.03;;
5285;SDS011;2665;53.112;7.358;2022-12-07T00:31:28;5.03;;;2.73;;
5285;SDS011;2665;53.112;7.358;2022-12-07T00:33:55;6.40;;;2.97;;
5285;SDS011;2665;53.112;7.358;2022-12-07T00:36:22;6.37;;;2.80;;
5285;SDS011;2665;53.112;7.358;2022-12-07T00:38:48;8.37;;;2.93;;
5285;SDS011;2665;53.112;7.358;2022-12-07T00:41:16;6.50;;;2.60;;
5285;SDS011;2665;53.112;7.358;2022-12-07T00:43:43;4.60;;;2.40;;
5285;SDS011;2665;53.112;7.358;2022-12-07T00:46:10;11.27;;;3.20;;
5285;SDS011;2665;53.112;7.358;2022-12-07T00:48:36;7.87;;;3.30;;
5285;SDS011;2665;53.112;7.358;2022-12-07T00:51:03;4.13;;;2.20;;
5285;SDS011;2665;53.112;7.358;2022-12-07T00:53:30;3.50;;;2.00;;
5285;SDS011;2665;53.112;7.358;2022-12-07T00:55:56;3.60;;;1.50;;
5285;SDS011;2665;53.112;7.358;2022-12-07T00:58:22;4.43;;;1.60;;
5285;SDS011;2665;53.112;7.358;2022-12-07T01:00:49;3.73;;;1.73;;
5285;SDS011;2665;53.112;7.358;2022-12-07T01:03:15;3.47;;;1.87;;
5285;SDS011;2665;53.112;7.358;2022-12-07T01:05:51;4.50;;;1.63;;
5285;SDS011;2665;53.112;7.358;2022-12-07T01:08:18;3.70;;;1.40;;
5285;SDS011;2665;53.112;7.358;2022-12-07T01:10:44;2.30;;;1.30;;
5285;SDS011;2665;53.112;7.358;2022-12-07T01:13:10;2.63;;;1.07;;
5285;SDS011;2665;53.112;7.358;2022-12-07T01:15:40;3.10;;;1.07;;
5285;SDS011;2665;53.112;7.358;2022-12-07T01:18:06;4.17;;;0.80;;
5285;SDS011;2665;53.112;7.358;2022-12-07T01:20:33;2.33;;;1.00;;
5285;SDS011;2665;53.112;7.358;2022-12-07T01:22:59;2.07;;;0.83;;
5285;SDS011;2665;53.112;7.358;2022-12-07T01:25:25;2.53;;;1.00;;
5285;SDS011;2665;53.112;7.358;2022-12-07T01:27:51;3.83;;;0.83;;
5285;SDS011;2665;53.112;7.358;2022-12-07T01:30:17;1.90;;;0.73;;
5285;SDS011;2665;53.112;7.358;2022-12-07T01:32:43;4.53;;;1.23;;
5285;SDS011;2665;53.112;7.358;2022-12-07T01:35:09;2.33;;;0.73;;
5285;SDS011;2665;53.112;7.358;2022-12-07T01:37:35;5.27;;;1.00;;
5285;SDS011;2665;53.112;7.358;2022-12-07T01:40:02;2.17;;;0.63;;
5285;SDS011;2665;53.112;7.358;2022-12-07T01:42:28;2.10;;;1.03;;
5285;SDS011;2665;53.112;7.358;2022-12-07T01:47:40;4.47;;;0.93;;
5285;SDS011;2665;53.112;7.358;2022-12-07T01:50:06;4.73;;;0.83;;
5285;SDS011;2665;53.112;7.358;2022-12-07T01:52:33;8.87;;;1.10;;
5285;SDS011;2665;53.112;7.358;2022-12-07T01:55:02;2.43;;;0.60;;
5285;SDS011;2665;53.112;7.358;2022-12-07T01:57:29;3.80;;;0.80;;
5285;SDS011;2665;53.112;7.358;2022-12-07T01:59:56;6.07;;;1.10;;
5285;SDS011;2665;53.112;7.358;2022-12-07T02:02:23;6.60;;;0.80;;
5285;SDS011;2665;53.112;7.358;2022-12-07T02:04:51;4.10;;;0.77;;
5285;SDS011;2665;53.112;7.358;2022-12-07T02:07:18;4.93;;;0.80;;
5285;SDS011;2665;53.112;7.358;2022-12-07T02:09:44;10.73;;;1.00;;
5285;SDS011;2665;53.112;7.358;2022-12-07T02:12:10;1.60;;;0.60;;
5285;SDS011;2665;53.112;7.358;2022-12-07T02:14:36;2.23;;;0.60;;
5285;SDS011;2665;53.112;7.358;2022-12-07T02:19:53;2.07;;;0.70;;
5285;SDS011;2665;53.112;7.358;2022-12-07T02:28:12;9.50;;;1.10;;
5285;SDS011;2665;53.112;7.358;2022-12-07T02:30:45;2.23;;;1.00;;
5285;SDS011;2665;53.112;7.358;2022-12-07T02:33:16;1.80;;;0.80;;
5285;SDS011;2665;53.112;7.358;2022-12-07T02:36:01;3.50;;;0.73;;
5285;SDS011;2665;53.112;7.358;2022-12-07T02:38:38;7.43;;;0.93;;
5285;SDS011;2665;53.112;7.358;2022-12-07T02:41:25;1.60;;;0.60;;
5285;SDS011;2665;53.112;7.358;2022-12-07T02:43:56;6.20;;;1.07;;
5285;SDS011;2665;53.112;7.358;2022-12-07T02:46:25;1.90;;;0.60;;
5285;SDS011;2665;53.112;7.358;2022-12-07T02:48:53;5.30;;;0.93;;
5285;SDS011;2665;53.112;7.358;2022-12-07T02:51:20;3.30;;;0.63;;
5285;SDS011;2665;53.112;7.358;2022-12-07T02:53:47;5.87;;;0.83;;
5285;SDS011;2665;53.112;7.358;2022-12-07T03:03:40;1.50;;;0.60;;
5285;SDS011;2665;53.112;7.358;2022-12-07T03:06:09;2.97;;;0.53;;
5285;SDS011;2665;53.112;7.358;2022-12-07T03:08:58;3.00;;;0.77;;
5285;SDS011;2665;53.112;7.358;2022-12-07T03:11:38;1.40;;;0.50;;
5285;SDS011;2665;53.112;7.358;2022-12-07T03:14:16;4.57;;;0.77;;
5285;SDS011;2665;53.112;7.358;2022-12-07T03:16:45;4.03;;;0.60;;
5285;SDS011;2665;53.112;7.358;2022-12-07T03:19:17;1.77;;;0.70;;
5285;SDS011;2665;53.112;7.358;2022-12-07T03:21:47;5.93;;;0.63;;
5285;SDS011;2665;53.112;7.358;2022-12-07T03:24:17;7.20;;;0.63;;
5285;SDS011;2665;53.112;7.358;2022-12-07T03:26:44;1.77;;;0.60;;
5285;SDS011;2665;53.112;7.358;2022-12-07T03:29:33;2.87;;;0.67;;
5285;SDS011;2665;53.112;7.358;2022-12-07T03:32:05;5.03;;;0.87;;
5285;SDS011;2665;53.112;7.358;2022-12-07T03:34:34;2.00;;;0.70;;
5285;SDS011;2665;53.112;7.358;2022-12-07T03:37:03;2.97;;;0.80;;
5285;SDS011;2665;53.112;7.358;2022-12-07T03:39:33;2.83;;;0.60;;
5285;SDS011;2665;53.112;7.358;2022-12-07T03:42:00;4.20;;;1.03;;
5285;SDS011;2665;53.112;7.358;2022-12-07T03:44:27;2.00;;;0.67;;
5285;SDS011;2665;53.112;7.358;2022-12-07T03:47:07;2.10;;;0.80;;
5285;SDS011;2665;53.112;7.358;2022-12-07T03:56:58;2.43;;;0.80;;
5285;SDS011;2665;53.112;7.358;2022-12-07T03:59:25;2.23;;;1.00;;
5285;SDS011;2665;53.112;7.358;2022-12-07T04:01:53;2.10;;;0.77;;
5285;SDS011;2665;53.112;7.358;2022-12-07T04:04:19;4.90;;;0.80;;
5285;SDS011;2665;53.112;7.358;2022-12-07T04:06:45;1.50;;;0.50;;
5285;SDS011;2665;53.112;7.358;2022-12-07T04:09:12;1.50;;;0.50;;
5285;SDS011;2665;53.112;7.358;2022-12-07T04:11:39;2.73;;;0.60;;
5285;SDS011;2665;53.112;7.358;2022-12-07T04:14:05;3.17;;;0.90;;
5285;SDS011;2665;53.112;7.358;2022-12-07T04:16:44;1.50;;;0.50;;
5285;SDS011;2665;53.112;7.358;2022-12-07T04:19:10;1.67;;;0.63;;
5285;SDS011;2665;53.112;7.358;2022-12-07T04:21:36;2.43;;;0.57;;
5285;SDS011;2665;53.112;7.358;2022-12-07T04:24:03;3.83;;;0.60;;
5285;SDS011;2665;53.112;7.358;2022-12-07T04:26:29;2.70;;;0.70;;
5285;SDS011;2665;53.112;7.358;2022-12-07T04:28:55;1.70;;;0.57;;
5285;SDS011;2665;53.112;7.358;2022-12-07T04:31:21;1.40;;;0.40;;
5285;SDS011;2665;53.112;7.358;2022-12-07T04:33:47;2.00;;;0.70;;
5285;SDS011;2665;53.112;7.358;2022-12-07T04:36:13;2.30;;;0.70;;
5285;SDS011;2665;53.112;7.358;2022-12-07T04:38:39;1.40;;;0.40;;
5285;SDS011;2665;53.112;7.358;2022-12-07T04:41:06;3.17;;;1.30;;
5285;SDS011;2665;53.112;7.358;2022-12-07T04:43:32;2.80;;;0.50;;
5285;SDS011;2665;53.112;7.358;2022-12-07T04:45:58;1.50;;;0.60;;
5285;SDS011;2665;53.112;7.358;2022-12-07T04:48:24;4.50;;;0.83;;
5285;SDS011;2665;53.112;7.358;2022-12-07T04:50:50;4.80;;;0.70;;
5285;SDS011;2665;53.112;7.358;2022-12-07T04:53:16;4.80;;;0.80;;
5285;SDS011;2665;53.112;7.358;2022-12-07T04:55:43;2.23;;;1.20;;
5285;SDS011;2665;53.112;7.358;2022-12-07T04:58:09;3.40;;;0.63;;
5285;SDS011;2665;53.112;7.358;2022-12-07T05:00:35;3.07;;;0.50;;
5285;SDS011;2665;53.112;7.358;2022-12-07T05:03:01;1.90;;;0.63;;
5285;SDS011;2665;53.112;7.358;2022-12-07T05:05:27;4.33;;;0.70;;
5285;SDS011;2665;53.112;7.358;2022-12-07T05:07:53;1.60;;;0.50;;
5285;SDS011;2665;53.112;7.358;2022-12-07T05:10:19;6.83;;;0.97;;
5285;SDS011;2665;53.112;7.358;2022-12-07T05:12:46;1.70;;;0.60;;
5285;SDS011;2665;53.112;7.358;2022-12-07T05:15:12;1.93;;;0.97;;
5285;SDS011;2665;53.112;7.358;2022-12-07T05:17:38;2.90;;;1.03;;
5285;SDS011;2665;53.112;7.358;2022-12-07T05:20:04;4.80;;;0.77;;
5285;SDS011;2665;53.112;7.358;2022-12-07T05:22:31;3.10;;;1.23;;
5285;SDS011;2665;53.112;7.358;2022-12-07T05:24:57;1.93;;;0.67;;
5285;SDS011;2665;53.112;7.358;2022-12-07T05:27:23;6.73;;;1.63;;
5285;SDS011;2665;53.112;7.358;2022-12-07T05:29:49;4.73;;;0.50;;
5285;SDS011;2665;53.112;7.358;2022-12-07T05:32:16;7.13;;;1.27;;
5285;SDS011;2665;53.112;7.358;2022-12-07T05:34:42;4.50;;;1.00;;
5285;SDS011;2665;53.112;7.358;2022-12-07T05:37:08;3.60;;;0.77;;
5285;SDS011;2665;53.112;7.358;2022-12-07T05:39:34;2.03;;;0.63;;
5285;SDS011;2665;53.112;7.358;2022-12-07T05:42:00;2.73;;;0.97;;
5285;SDS011;2665;53.112;7.358;2022-12-07T05:44:39;1.70;;;0.77;;
5285;SDS011;2665;53.112;7.358;2022-12-07T05:47:05;2.17;;;0.67;;
5285;SDS011;2665;53.112;7.358;2022-12-07T05:49:31;2.43;;;0.77;;
5285;SDS011;2665;53.112;7.358;2022-12-07T05:51:57;1.43;;;0.50;;
5285;SDS011;2665;53.112;7.358;2022-12-07T05:54:23;3.53;;;0.90;;
5285;SDS011;2665;53.112;7.358;2022-12-07T05:56:49;2.87;;;0.70;;
5285;SDS011;2665;53.112;7.358;2022-12-07T05:59:15;1.57;;;0.50;;
5285;SDS011;2665;53.112;7.358;2022-12-07T06:01:51;4.17;;;0.93;;
5285;SDS011;2665;53.112;7.358;2022-12-07T06:04:17;3.10;;;0.87;;
5285;SDS011;2665;53.112;7.358;2022-12-07T06:06:44;3.10;;;0.70;;
5285;SDS011;2665;53.112;7.358;2022-12-07T06:09:10;1.63;;;0.70;;
5285;SDS011;2665;53.112;7.358;2022-12-07T06:11:37;3.20;;;0.50;;
5285;SDS011;2665;53.112;7.358;2022-12-07T06:14:22;2.17;;;0.63;;
5285;SDS011;2665;53.112;7.358;2022-12-07T06:16:48;2.33;;;0.60;;
5285;SDS011;2665;53.112;7.358;2022-12-07T06:19:14;2.70;;;0.90;;
5285;SDS011;2665;53.112;7.358;2022-12-07T06:21:40;3.30;;;0.70;;
5285;SDS011;2665;53.112;7.358;2022-12-07T06:24:07;1.50;;;0.63;;
5285;SDS011;2665;53.112;7.358;2022-12-07T06:26:33;3.00;;;0.60;;
5285;SDS011;2665;53.112;7.358;2022-12-07T06:28:59;2.23;;;0.63;;
5285;SDS011;2665;53.112;7.358;2022-12-07T06:31:25;5.57;;;0.83;;
5285;SDS011;2665;53.112;7.358;2022-12-07T06:33:51;1.67;;;0.67;;
5285;SDS011;2665;53.112;7.358;2022-12-07T06:36:17;5.00;;;0.70;;
5285;SDS011;2665;53.112;7.358;2022-12-07T06:38:43;5.13;;;0.67;;
5285;SDS011;2665;53.112;7.358;2022-12-07T06:41:09;2.10;;;0.60;;
5285;SDS011;2665;53.112;7.358;2022-12-07T06:43:35;2.90;;;0.67;;
5285;SDS011;2665;53.112;7.358;2022-12-07T06:46:01;1.50;;;0.60;;
5285;SDS011;2665;53.112;7.358;2022-12-07T06:48:27;3.80;;;0.97;;
5285;SDS011;2665;53.112;7.358;2022-12-07T06:50:53;3.47;;;0.80;;
5285;SDS011;2665;53.112;7.358;2022-12-07T06:53:19;10.53;;;1.20;;
5285;SDS011;2665;53.112;7.358;2022-12-07T06:55:45;1.97;;;0.80;;
5285;SDS011;2665;53.112;7.358;2022-12-07T06:58:11;1.63;;;0.60;;
5285;SDS011;2665;53.112;7.358;2022-12-07T07:00:37;2.07;;;0.77;;
5285;SDS011;2665;53.112;7.358;2022-12-07T07:03:03;2.80;;;0.80;;
5285;SDS011;2665;53.112;7.358;2022-12-07T07:05:29;4.90;;;0.70;;
5285;SDS011;2665;53.112;7.358;2022-12-07T07:07:55;1.50;;;0.50;;
5285;SDS011;2665;53.112;7.358;2022-12-07T07:10:21;1.40;;;0.50;;
5285;SDS011;2665;53.112;7.358;2022-12-07T07:12:47;1.53;;;0.50;;
5285;SDS011;2665;53.112;7.358;2022-12-07T07:15:13;1.40;;;0.47;;
5285;SDS011;2665;53.112;7.358;2022-12-07T07:17:39;2.23;;;0.70;;
5285;SDS011;2665;53.112;7.358;2022-12-07T07:20:05;2.03;;;1.57;;
5285;SDS011;2665;53.112;7.358;2022-12-07T07:22:31;2.00;;;0.70;;
5285;SDS011;2665;53.112;7.358;2022-12-07T07:24:57;2.27;;;0.50;;
5285;SDS011;2665;53.112;7.358;2022-12-07T07:27:23;2.40;;;0.60;;
5285;SDS011;2665;53.112;7.358;2022-12-07T07:29:49;3.20;;;0.60;;
5285;SDS011;2665;53.112;7.358;2022-12-07T07:32:15;3.60;;;0.80;;
5285;SDS011;2665;53.112;7.358;2022-12-07T07:34:41;1.60;;;0.60;;
5285;SDS011;2665;53.112;7.358;2022-12-07T07:37:07;5.13;;;0.60;;
5285;SDS011;2665;53.112;7.358;2022-12-07T07:39:35;3.53;;;0.80;;
5285;SDS011;2665;53.112;7.358;2022-12-07T07:42:01;1.70;;;0.50;;
5285;SDS011;2665;53.112;7.358;2022-12-07T07:44:28;4.03;;;0.70;;
5285;SDS011;2665;53.112;7.358;2022-12-07T07:46:54;3.90;;;0.70;;
5285;SDS011;2665;53.112;7.358;2022-12-07T07:49:20;3.23;;;0.87;;
5285;SDS011;2665;53.112;7.358;2022-12-07T07:51:46;1.50;;;0.60;;
5285;SDS011;2665;53.112;7.358;2022-12-07T07:54:12;4.33;;;0.97;;
5285;SDS011;2665;53.112;7.358;2022-12-07T07:56:38;4.07;;;0.90;;
5285;SDS011;2665;53.112;7.358;2022-12-07T07:59:04;4.47;;;0.80;;
5285;SDS011;2665;53.112;7.358;2022-12-07T08:01:30;2.43;;;0.50;;
5285;SDS011;2665;53.112;7.358;2022-12-07T08:03:56;3.30;;;0.90;;
5285;SDS011;2665;53.112;7.358;2022-12-07T08:06:22;4.80;;;0.90;;
5285;SDS011;2665;53.112;7.358;2022-12-07T08:08:48;2.37;;;1.13;;
5285;SDS011;2665;53.112;7.358;2022-12-07T08:11:14;2.53;;;0.80;;
5285;SDS011;2665;53.112;7.358;2022-12-07T08:13:40;4.03;;;1.20;;
5285;SDS011;2665;53.112;7.358;2022-12-07T08:16:07;1.90;;;0.80;;
5285;SDS011;2665;53.112;7.358;2022-12-07T08:18:37;7.40;;;1.33;;
5285;SDS011;2665;53.112;7.358;2022-12-07T08:21:04;7.30;;;0.90;;
5285;SDS011;2665;53.112;7.358;2022-12-07T08:23:30;4.90;;;0.93;;
5285;SDS011;2665;53.112;7.358;2022-12-07T08:26:00;5.43;;;1.13;;
5285;SDS011;2665;53.112;7.358;2022-12-07T08:28:26;1.70;;;0.60;;
5285;SDS011;2665;53.112;7.358;2022-12-07T08:30:52;2.60;;;0.63;;
5285;SDS011;2665;53.112;7.358;2022-12-07T08:33:18;3.40;;;0.80;;
5285;SDS011;2665;53.112;7.358;2022-12-07T08:35:47;2.83;;;1.10;;
5285;SDS011;2665;53.112;7.358;2022-12-07T08:38:13;4.43;;;0.83;;
5285;SDS011;2665;53.112;7.358;2022-12-07T08:40:39;3.60;;;0.97;;
5285;SDS011;2665;53.112;7.358;2022-12-07T08:43:05;7.73;;;1.20;;
5285;SDS011;2665;53.112;7.358;2022-12-07T08:45:31;6.10;;;0.97;;
5285;SDS011;2665;53.112;7.358;2022-12-07T08:48:09;6.80;;;0.90;;
5285;SDS011;2665;53.112;7.358;2022-12-07T08:50:37;4.73;;;0.90;;
5285;SDS011;2665;53.112;7.358;2022-12-07T08:53:04;2.70;;;0.80;;
5285;SDS011;2665;53.112;7.358;2022-12-07T08:55:31;4.20;;;1.30;;
5285;SDS011;2665;53.112;7.358;2022-12-07T08:57:57;4.00;;;0.80;;
5285;SDS011;2665;53.112;7.358;2022-12-07T09:00:24;9.03;;;3.23;;
5285;SDS011;2665;53.112;7.358;2022-12-07T09:02:51;2.40;;;0.60;;
5285;SDS011;2665;53.112;7.358;2022-12-07T09:05:17;5.77;;;0.90;;
5285;SDS011;2665;53.112;7.358;2022-12-07T09:07:43;3.73;;;0.90;;
5285;SDS011;2665;53.112;7.358;2022-12-07T09:10:11;2.20;;;0.67;;
5285;SDS011;2665;53.112;7.358;2022-12-07T09:12:37;2.47;;;0.87;;
5285;SDS011;2665;53.112;7.358;2022-12-07T09:15:03;4.63;;;1.00;;
5285;SDS011;2665;53.112;7.358;2022-12-07T09:17:31;2.67;;;0.80;;
5285;SDS011;2665;53.112;7.358;2022-12-07T09:19:57;4.70;;;1.00;;
5285;SDS011;2665;53.112;7.358;2022-12-07T09:22:23;3.20;;;0.97;;
5285;SDS011;2665;53.112;7.358;2022-12-07T09:24:49;1.90;;;0.60;;
5285;SDS011;2665;53.112;7.358;2022-12-07T09:27:15;3.80;;;1.07;;
5285;SDS011;2665;53.112;7.358;2022-12-07T09:29:43;3.40;;;0.73;;
5285;SDS011;2665;53.112;7.358;2022-12-07T09:32:09;4.90;;;0.70;;
5285;SDS011;2665;53.112;7.358;2022-12-07T09:34:35;4.63;;;0.93;;
5285;SDS011;2665;53.112;7.358;2022-12-07T09:37:01;4.80;;;1.03;;
5285;SDS011;2665;53.112;7.358;2022-12-07T09:39:28;3.67;;;1.13;;
5285;SDS011;2665;53.112;7.358;2022-12-07T09:41:54;2.67;;;0.70;;
5285;SDS011;2665;53.112;7.358;2022-12-07T09:44:21;6.53;;;1.07;;
5285;SDS011;2665;53.112;7.358;2022-12-07T09:46:49;7.53;;;1.27;;
5285;SDS011;2665;53.112;7.358;2022-12-07T09:49:22;4.10;;;0.73;;
5285;SDS011;2665;53.112;7.358;2022-12-07T09:51:59;4.50;;;0.83;;
5285;SDS011;2665;53.112;7.358;2022-12-07T09:54:26;1.70;;;0.50;;
5285;SDS011;2665;53.112;7.358;2022-12-07T09:56:52;4.57;;;0.60;;
5285;SDS011;2665;53.112;7.358;2022-12-07T09:59:18;2.27;;;0.70;;
5285;SDS011;2665;53.112;7.358;2022-12-07T10:01:48;10.43;;;1.27;;
5285;SDS011;2665;53.112;7.358;2022-12-07T10:04:18;3.30;;;0.60;;
5285;SDS011;2665;53.112;7.358;2022-12-07T10:06:46;2.00;;;0.60;;
5285;SDS011;2665;53.112;7.358;2022-12-07T10:09:13;5.17;;;0.97;;
5285;SDS011;2665;53.112;7.358;2022-12-07T10:14:24;3.50;;;0.70;;
5285;SDS011;2665;53.112;7.358;2022-12-07T10:16:52;3.50;;;0.60;;
5285;SDS011;2665;53.112;7.358;2022-12-07T10:24:26;4.83;;;0.70;;
5285;SDS011;2665;53.112;7.358;2022-12-07T10:26:52;1.50;;;0.50;;
5285;SDS011;2665;53.112;7.358;2022-12-07T10:29:29;1.80;;;0.73;;
5285;SDS011;2665;53.112;7.358;2022-12-07T10:31:59;1.70;;;0.50;;
5285;SDS011;2665;53.112;7.358;2022-12-07T10:36:52;2.53;;;0.50;;
5285;SDS011;2665;53.112;7.358;2022-12-07T10:39:22;2.77;;;0.80;;
5285;SDS011;2665;53.112;7.358;2022-12-07T10:41:58;3.60;;;0.70;;
5285;SDS011;2665;53.112;7.358;2022-12-07T10:44:28;5.07;;;0.67;;
5285;SDS011;2665;53.112;7.358;2022-12-07T11:05:12;2.80;;;0.73;;
5285;SDS011;2665;53.112;7.358;2022-12-07T11:08:00;3.07;;;0.60;;
5285;SDS011;2665;53.112;7.358;2022-12-07T11:15:29;5.40;;;0.77;;
5285;SDS011;2665;53.112;7.358;2022-12-07T11:18:06;2.40;;;0.67;;
5285;SDS011;2665;53.112;7.358;2022-12-07T11:23:20;1.83;;;0.77;;
5285;SDS011;2665;53.112;7.358;2022-12-07T11:34:23;5.80;;;0.70;;
5285;SDS011;2665;53.112;7.358;2022-12-07T11:37:18;3.60;;;1.00;;
5285;SDS011;2665;53.112;7.358;2022-12-07T11:39:51;3.50;;;0.60;;
5285;SDS011;2665;53.112;7.358;2022-12-07T11:42:31;8.87;;;1.60;;
5285;SDS011;2665;53.112;7.358;2022-12-07T11:45:13;3.30;;;0.70;;
5285;SDS011;2665;53.112;7.358;2022-12-07T11:47:47;5.83;;;1.23;;
5285;SDS011;2665;53.112;7.358;2022-12-07T11:58:35;6.13;;;0.80;;
5285;SDS011;2665;53.112;7.358;2022-12-07T12:01:14;2.83;;;0.70;;
5285;SDS011;2665;53.112;7.358;2022-12-07T12:06:32;7.37;;;1.00;;
5285;SDS011;2665;53.112;7.358;2022-12-07T12:11:48;2.20;;;0.60;;
5285;SDS011;2665;53.112;7.358;2022-12-07T12:19:35;3.30;;;1.13;;
5285;SDS011;2665;53.112;7.358;2022-12-07T12:22:17;4.80;;;1.17;;
5285;SDS011;2665;53.112;7.358;2022-12-07T12:24:46;11.73;;;1.13;;
5285;SDS011;2665;53.112;7.358;2022-12-07T12:27:26;4.20;;;1.13;;
5285;SDS011;2665;53.112;7.358;2022-12-07T12:29:56;2.17;;;0.77;;
5285;SDS011;2665;53.112;7.358;2022-12-07T12:35:20;1.73;;;0.80;;
5285;SDS011;2665;53.112;7.358;2022-12-07T12:37:48;2.53;;;0.80;;
5285;SDS011;2665;53.112;7.358;2022-12-07T12:42:47;5.03;;;1.00;;
5285;SDS011;2665;53.112;7.358;2022-12-07T12:45:18;4.30;;;0.80;;
5285;SDS011;2665;53.112;7.358;2022-12-07T12:47:52;3.00;;;0.97;;
5285;SDS011;2665;53.112;7.358;2022-12-07T12:52:50;4.70;;;0.90;;
5285;SDS011;2665;53.112;7.358;2022-12-07T12:55:17;4.17;;;1.03;;
5285;SDS011;2665;53.112;7.358;2022-12-07T12:57:46;2.90;;;1.00;;
5285;SDS011;2665;53.112;7.358;2022-12-07T13:17:59;3.97;;;0.70;;
5285;SDS011;2665;53.112;7.358;2022-12-07T13:23:11;5.70;;;1.07;;
5285;SDS011;2665;53.112;7.358;2022-12-07T13:25:44;7.17;;;1.00;;
5285;SDS011;2665;53.112;7.358;2022-12-07T13:28:15;2.67;;;0.70;;
5285;SDS011;2665;53.112;7.358;2022-12-07T13:30:43;2.50;;;0.60;;
5285;SDS011;2665;53.112;7.358;2022-12-07T13:33:10;2.73;;;1.43;;
5285;SDS011;2665;53.112;7.358;2022-12-07T13:35:37;3.23;;;1.10;;
5285;SDS011;2665;53.112;7.358;2022-12-07T13:41:19;2.77;;;0.63;;
5285;SDS011;2665;53.112;7.358;2022-12-07T13:43:46;2.30;;;0.80;;
5285;SDS011;2665;53.112;7.358;2022-12-07T13:46:13;5.20;;;0.60;;
5285;SDS011;2665;53.112;7.358;2022-12-07T13:48:44;3.90;;;0.93;;
5285;SDS011;2665;53.112;7.358;2022-12-07T13:51:19;2.47;;;0.67;;
5285;SDS011;2665;53.112;7.358;2022-12-07T13:53:47;1.80;;;0.70;;
5285;SDS011;2665;53.112;7.358;2022-12-07T13:56:14;3.50;;;0.60;;
5285;SDS011;2665;53.112;7.358;2022-12-07T13:58:41;3.77;;;0.67;;
5285;SDS011;2665;53.112;7.358;2022-12-07T14:01:08;1.80;;;0.60;;
5285;SDS011;2665;53.112;7.358;2022-12-07T14:03:35;4.63;;;0.60;;
5285;SDS011;2665;53.112;7.358;2022-12-07T14:08:33;2.17;;;0.93;;
5285;SDS011;2665;53.112;7.358;2022-12-07T14:10:59;2.27;;;0.73;;
5285;SDS011;2665;53.112;7.358;2022-12-07T14:13:30;2.53;;;0.70;;
5285;SDS011;2665;53.112;7.358;2022-12-07T14:15:57;1.80;;;0.60;;
5285;SDS011;2665;53.112;7.358;2022-12-07T14:18:34;1.53;;;0.57;;
5285;SDS011;2665;53.112;7.358;2022-12-07T14:21:05;2.83;;;0.50;;
5285;SDS011;2665;53.112;7.358;2022-12-07T14:23:32;1.73;;;0.60;;
5285;SDS011;2665;53.112;7.358;2022-12-07T14:26:09;13.67;;;1.07;;
5285;SDS011;2665;53.112;7.358;2022-12-07T14:28:38;1.70;;;0.60;;
5285;SDS011;2665;53.112;7.358;2022-12-07T14:31:08;2.10;;;0.83;;
5285;SDS011;2665;53.112;7.358;2022-12-07T14:33:35;1.83;;;0.60;;
5285;SDS011;2665;53.112;7.358;2022-12-07T14:36:02;1.77;;;0.70;;
5285;SDS011;2665;53.112;7.358;2022-12-07T14:38:28;3.13;;;0.70;;
5285;SDS011;2665;53.112;7.358;2022-12-07T14:40:54;2.27;;;0.70;;
5285;SDS011;2665;53.112;7.358;2022-12-07T14:43:40;1.50;;;0.50;;
5285;SDS011;2665;53.112;7.358;2022-12-07T14:46:06;1.63;;;0.50;;
5285;SDS011;2665;53.112;7.358;2022-12-07T14:48:32;3.43;;;1.17;;
5285;SDS011;2665;53.112;7.358;2022-12-07T14:50:58;3.53;;;0.60;;
5285;SDS011;2665;53.112;7.358;2022-12-07T14:53:27;1.57;;;0.60;;
5285;SDS011;2665;53.112;7.358;2022-12-07T14:55:54;2.00;;;0.73;;
5285;SDS011;2665;53.112;7.358;2022-12-07T14:58:20;1.97;;;0.60;;
5285;SDS011;2665;53.112;7.358;2022-12-07T15:00:46;2.13;;;0.60;;
5285;SDS011;2665;53.112;7.358;2022-12-07T15:03:13;2.70;;;0.50;;
5285;SDS011;2665;53.112;7.358;2022-12-07T15:05:39;2.90;;;0.70;;
5285;SDS011;2665;53.112;7.358;2022-12-07T15:08:06;1.90;;;0.77;;
5285;SDS011;2665;53.112;7.358;2022-12-07T15:10:33;1.80;;;0.70;;
5285;SDS011;2665;53.112;7.358;2022-12-07T15:13:03;3.30;;;0.60;;
5285;SDS011;2665;53.112;7.358;2022-12-07T15:15:48;2.47;;;1.17;;
5285;SDS011;2665;53.112;7.358;2022-12-07T15:18:14;1.70;;;0.70;;
5285;SDS011;2665;53.112;7.358;2022-12-07T15:20:40;2.10;;;0.93;;
5285;SDS011;2665;53.112;7.358;2022-12-07T15:23:07;4.10;;;0.83;;
5285;SDS011;2665;53.112;7.358;2022-12-07T15:25:33;2.47;;;0.80;;
5285;SDS011;2665;53.112;7.358;2022-12-07T15:27:59;2.10;;;1.10;;
5285;SDS011;2665;53.112;7.358;2022-12-07T15:30:25;3.40;;;0.80;;
5285;SDS011;2665;53.112;7.358;2022-12-07T15:32:51;2.20;;;1.10;;
5285;SDS011;2665;53.112;7.358;2022-12-07T15:35:18;1.93;;;1.03;;
5285;SDS011;2665;53.112;7.358;2022-12-07T15:37:44;2.67;;;0.93;;
5285;SDS011;2665;53.112;7.358;2022-12-07T15:40:11;2.70;;;0.90;;
5285;SDS011;2665;53.112;7.358;2022-12-07T15:42:37;3.60;;;1.00;;
5285;SDS011;2665;53.112;7.358;2022-12-07T15:45:04;2.90;;;1.13;;
5285;SDS011;2665;53.112;7.358;2022-12-07T15:47:31;2.13;;;0.90;;
5285;SDS011;2665;53.112;7.358;2022-12-07T15:49:57;2.83;;;1.40;;
5285;SDS011;2665;53.112;7.358;2022-12-07T15:52:23;3.57;;;0.80;;
5285;SDS011;2665;53.112;7.358;2022-12-07T15:54:49;4.20;;;0.90;;
5285;SDS011;2665;53.112;7.358;2022-12-07T15:57:15;1.90;;;1.20;;
5285;SDS011;2665;53.112;7.358;2022-12-07T15:59:41;4.33;;;0.80;;
5285;SDS011;2665;53.112;7.358;2022-12-07T16:02:09;2.20;;;0.70;;
5285;SDS011;2665;53.112;7.358;2022-12-07T16:04:35;2.20;;;0.77;;
5285;SDS011;2665;53.112;7.358;2022-12-07T16:07:01;1.90;;;0.80;;
5285;SDS011;2665;53.112;7.358;2022-12-07T16:09:27;5.33;;;0.60;;
5285;SDS011;2665;53.112;7.358;2022-12-07T16:11:53;3.93;;;0.87;;
5285;SDS011;2665;53.112;7.358;2022-12-07T16:14:19;2.00;;;0.67;;
5285;SDS011;2665;53.112;7.358;2022-12-07T16:16:46;3.40;;;0.70;;
5285;SDS011;2665;53.112;7.358;2022-12-07T16:19:12;8.07;;;0.97;;
5285;SDS011;2665;53.112;7.358;2022-12-07T16:21:38;2.07;;;0.93;;
5285;SDS011;2665;53.112;7.358;2022-12-07T16:24:05;2.27;;;0.80;;
5285;SDS011;2665;53.112;7.358;2022-12-07T16:26:31;5.53;;;0.83;;
5285;SDS011;2665;53.112;7.358;2022-12-07T16:28:57;13.70;;;0.93;;
5285;SDS011;2665;53.112;7.358;2022-12-07T16:31:24;1.77;;;0.70;;
5285;SDS011;2665;53.112;7.358;2022-12-07T16:33:52;3.07;;;0.77;;
5285;SDS011;2665;53.112;7.358;2022-12-07T16:36:19;4.80;;;1.47;;
5285;SDS011;2665;53.112;7.358;2022-12-07T16:38:47;3.23;;;1.23;;
5285;SDS011;2665;53.112;7.358;2022-12-07T16:41:13;1.83;;;0.70;;
5285;SDS011;2665;53.112;7.358;2022-12-07T16:43:39;1.87;;;0.80;;
5285;SDS011;2665;53.112;7.358;2022-12-07T16:46:06;1.50;;;0.53;;
5285;SDS011;2665;53.112;7.358;2022-12-07T16:48:34;2.47;;;1.10;;
5285;SDS011;2665;53.112;7.358;2022-12-07T16:51:02;2.23;;;0.97;;
5285;SDS011;2665;53.112;7.358;2022-12-07T16:53:28;1.50;;;0.60;;
5285;SDS011;2665;53.112;7.358;2022-12-07T16:55:54;2.03;;;0.80;;
5285;SDS011;2665;53.112;7.358;2022-12-07T16:58:20;1.60;;;0.60;;
5285;SDS011;2665;53.112;7.358;2022-12-07T17:00:46;2.37;;;0.70;;
5285;SDS011;2665;53.112;7.358;2022-12-07T17:03:13;2.30;;;0.90;;
5285;SDS011;2665;53.112;7.358;2022-12-07T17:05:40;2.97;;;0.70;;
5285;SDS011;2665;53.112;7.358;2022-12-07T17:08:07;1.53;;;0.57;;
5285;SDS011;2665;53.112;7.358;2022-12-07T17:10:34;1.50;;;0.60;;
5285;SDS011;2665;53.112;7.358;2022-12-07T17:13:01;3.30;;;0.70;;
5285;SDS011;2665;53.112;7.358;2022-12-07T17:15:27;1.77;;;0.53;;
5285;SDS011;2665;53.112;7.358;2022-12-07T17:17:57;3.10;;;0.70;;
5285;SDS011;2665;53.112;7.358;2022-12-07T17:20:24;4.80;;;0.63;;
5285;SDS011;2665;53.112;7.358;2022-12-07T17:22:50;4.40;;;0.63;;
5285;SDS011;2665;53.112;7.358;2022-12-07T17:25:17;1.90;;;0.77;;